sensor_id;sensor_type;location;lat;lon;timestamp;P1;durP1;ratioP1;P2;durP2;ratioP2
54263;SDS011;40178;53.042;6.406;2022-10-16T00:00:30;6.38;;;1.95;;
54263;SDS011;40178;53.042;6.406;2022-10-16T00:02:56;6.28;;;1.85;;
54263;SDS011;40178;53.042;6.406;2022-10-16T00:05:22;8.27;;;1.92;;
54263;SDS011;40178;53.042;6.406;2022-10-16T00:07:47;11.70;;;2.15;;
54263;SDS011;40178;53.042;6.406;2022-10-16T00:10:13;8.07;;;2.03;;
54263;SDS011;40178;53.042;6.406;2022-10-16T00:12:39;7.15;;;2.10;;
54263;SDS011;40178;53.042;6.406;2022-10-16T00:15:05;9.55;;;2.08;;
54263;SDS011;40178;53.042;6.406;2022-10-16T00:17:31;8.00;;;2.15;;
54263;SDS011;40178;53.042;6.406;2022-10-16T00:19:56;7.13;;;1.60;;
54263;SDS011;40178;53.042;6.406;2022-10-16T00:22:22;10.43;;;2.17;;
54263;SDS011;40178;53.042;6.406;2022-10-16T00:24:48;8.98;;;2.42;;
54263;SDS011;40178;53.042;6.406;2022-10-16T00:27:13;7.85;;;1.80;;
54263;SDS011;40178;53.042;6.406;2022-10-16T00:29:39;11.05;;;2.60;;
54263;SDS011;40178;53.042;6.406;2022-10-16T00:32:04;7.55;;;1.83;;
54263;SDS011;40178;53.042;6.406;2022-10-16T00:34:30;6.97;;;2.25;;
54263;SDS011;40178;53.042;6.406;2022-10-16T00:36:56;8.13;;;2.00;;
54263;SDS011;40178;53.042;6.406;2022-10-16T00:39:21;5.50;;;1.70;;
54263;SDS011;40178;53.042;6.406;2022-10-16T00:41:47;7.88;;;1.95;;
54263;SDS011;40178;53.042;6.406;2022-10-16T00:47:09;7.32;;;1.80;;
54263;SDS011;40178;53.042;6.406;2022-10-16T00:49:38;8.32;;;1.70;;
54263;SDS011;40178;53.042;6.406;2022-10-16T00:52:03;5.40;;;1.50;;
54263;SDS011;40178;53.042;6.406;2022-10-16T00:54:31;6.10;;;1.50;;
54263;SDS011;40178;53.042;6.406;2022-10-16T00:57:00;7.00;;;1.60;;
54263;SDS011;40178;53.042;6.406;2022-10-16T00:59:30;4.78;;;1.83;;
54263;SDS011;40178;53.042;6.406;2022-10-16T01:01:58;7.35;;;1.73;;
54263;SDS011;40178;53.042;6.406;2022-10-16T01:04:24;5.35;;;1.65;;
54263;SDS011;40178;53.042;6.406;2022-10-16T01:09:42;9.18;;;1.45;;
54263;SDS011;40178;53.042;6.406;2022-10-16T01:12:40;6.38;;;1.45;;
54263;SDS011;40178;53.042;6.406;2022-10-16T01:17:56;5.13;;;1.70;;
54263;SDS011;40178;53.042;6.406;2022-10-16T01:21:02;6.93;;;1.70;;
54263;SDS011;40178;53.042;6.406;2022-10-16T01:23:41;6.30;;;1.77;;
54263;SDS011;40178;53.042;6.406;2022-10-16T01:36:26;8.88;;;2.33;;
54263;SDS011;40178;53.042;6.406;2022-10-16T01:39:38;5.82;;;1.73;;
54263;SDS011;40178;53.042;6.406;2022-10-16T01:46:01;5.32;;;1.50;;
54263;SDS011;40178;53.042;6.406;2022-10-16T01:48:49;7.75;;;1.92;;
54263;SDS011;40178;53.042;6.406;2022-10-16T01:55:17;8.80;;;1.92;;
54263;SDS011;40178;53.042;6.406;2022-10-16T01:58:21;6.22;;;1.63;;
54263;SDS011;40178;53.042;6.406;2022-10-16T02:01:03;8.05;;;1.45;;
54263;SDS011;40178;53.042;6.406;2022-10-16T02:04:15;4.13;;;1.30;;
54263;SDS011;40178;53.042;6.406;2022-10-16T02:07:25;6.78;;;1.60;;
54263;SDS011;40178;53.042;6.406;2022-10-16T02:18:02;7.10;;;1.65;;
54263;SDS011;40178;53.042;6.406;2022-10-16T02:20:45;5.47;;;1.45;;
54263;SDS011;40178;53.042;6.406;2022-10-16T02:26:49;4.35;;;1.30;;
54263;SDS011;40178;53.042;6.406;2022-10-16T02:29:26;4.57;;;1.77;;
54263;SDS011;40178;53.042;6.406;2022-10-16T02:32:47;4.55;;;1.08;;
54263;SDS011;40178;53.042;6.406;2022-10-16T02:38:44;4.28;;;1.40;;
54263;SDS011;40178;53.042;6.406;2022-10-16T02:41:40;3.95;;;1.50;;
54263;SDS011;40178;53.042;6.406;2022-10-16T02:44:33;4.82;;;1.58;;
54263;SDS011;40178;53.042;6.406;2022-10-16T02:47:37;5.35;;;1.48;;
54263;SDS011;40178;53.042;6.406;2022-10-16T02:50:50;7.15;;;1.50;;
54263;SDS011;40178;53.042;6.406;2022-10-16T02:53:20;4.97;;;1.60;;
54263;SDS011;40178;53.042;6.406;2022-10-16T02:58:55;5.35;;;1.52;;
54263;SDS011;40178;53.042;6.406;2022-10-16T03:01:51;5.03;;;1.38;;
54263;SDS011;40178;53.042;6.406;2022-10-16T03:04:52;5.70;;;1.50;;
54263;SDS011;40178;53.042;6.406;2022-10-16T03:07:57;3.92;;;1.48;;
54263;SDS011;40178;53.042;6.406;2022-10-16T03:11:03;4.93;;;1.67;;
54263;SDS011;40178;53.042;6.406;2022-10-16T03:14:02;4.43;;;1.70;;
54263;SDS011;40178;53.042;6.406;2022-10-16T03:17:06;7.88;;;1.42;;
54263;SDS011;40178;53.042;6.406;2022-10-16T03:19:50;5.28;;;1.60;;
54263;SDS011;40178;53.042;6.406;2022-10-16T03:22:40;4.78;;;1.70;;
54263;SDS011;40178;53.042;6.406;2022-10-16T03:25:37;4.85;;;1.33;;
54263;SDS011;40178;53.042;6.406;2022-10-16T03:32:06;5.45;;;1.50;;
54263;SDS011;40178;53.042;6.406;2022-10-16T03:35:08;7.55;;;2.17;;
54263;SDS011;40178;53.042;6.406;2022-10-16T03:38:11;6.78;;;1.60;;
54263;SDS011;40178;53.042;6.406;2022-10-16T03:41:02;6.32;;;1.73;;
54263;SDS011;40178;53.042;6.406;2022-10-16T03:44:04;5.55;;;1.50;;
54263;SDS011;40178;53.042;6.406;2022-10-16T03:47:04;7.20;;;1.80;;
54263;SDS011;40178;53.042;6.406;2022-10-16T03:50:07;6.97;;;1.70;;
54263;SDS011;40178;53.042;6.406;2022-10-16T04:00:18;6.18;;;1.52;;
54263;SDS011;40178;53.042;6.406;2022-10-16T04:03:31;4.88;;;1.48;;
54263;SDS011;40178;53.042;6.406;2022-10-16T04:06:36;6.35;;;1.92;;
54263;SDS011;40178;53.042;6.406;2022-10-16T04:09:25;4.55;;;1.70;;
54263;SDS011;40178;53.042;6.406;2022-10-16T04:12:30;6.47;;;2.08;;
54263;SDS011;40178;53.042;6.406;2022-10-16T04:15:30;5.18;;;1.65;;
54263;SDS011;40178;53.042;6.406;2022-10-16T04:18:12;4.53;;;1.50;;
54263;SDS011;40178;53.042;6.406;2022-10-16T04:23:58;7.05;;;1.95;;
54263;SDS011;40178;53.042;6.406;2022-10-16T04:27:01;5.53;;;2.00;;
54263;SDS011;40178;53.042;6.406;2022-10-16T04:33:13;5.80;;;1.88;;
54263;SDS011;40178;53.042;6.406;2022-10-16T04:35:59;4.47;;;1.98;;
54263;SDS011;40178;53.042;6.406;2022-10-16T04:42:09;5.88;;;2.00;;
54263;SDS011;40178;53.042;6.406;2022-10-16T04:45:24;5.60;;;1.77;;
54263;SDS011;40178;53.042;6.406;2022-10-16T04:54:53;7.85;;;2.35;;
54263;SDS011;40178;53.042;6.406;2022-10-16T04:57:29;7.60;;;2.53;;
54263;SDS011;40178;53.042;6.406;2022-10-16T05:03:12;5.35;;;2.20;;
54263;SDS011;40178;53.042;6.406;2022-10-16T05:05:41;6.43;;;2.40;;
54263;SDS011;40178;53.042;6.406;2022-10-16T05:18:58;8.20;;;2.65;;
54263;SDS011;40178;53.042;6.406;2022-10-16T05:21:38;7.93;;;3.03;;
54263;SDS011;40178;53.042;6.406;2022-10-16T05:28:33;5.45;;;2.42;;
54263;SDS011;40178;53.042;6.406;2022-10-16T05:34:31;5.47;;;2.80;;
54263;SDS011;40178;53.042;6.406;2022-10-16T05:40:40;8.82;;;3.13;;
54263;SDS011;40178;53.042;6.406;2022-10-16T05:44:16;7.40;;;2.60;;
54263;SDS011;40178;53.042;6.406;2022-10-16T05:50:39;5.45;;;2.53;;
54263;SDS011;40178;53.042;6.406;2022-10-16T05:56:36;8.30;;;3.13;;
54263;SDS011;40178;53.042;6.406;2022-10-16T05:59:25;7.00;;;2.88;;
54263;SDS011;40178;53.042;6.406;2022-10-16T06:02:02;6.28;;;3.47;;
54263;SDS011;40178;53.042;6.406;2022-10-16T06:05:11;7.25;;;3.13;;
54263;SDS011;40178;53.042;6.406;2022-10-16T06:08:07;9.75;;;3.38;;
54263;SDS011;40178;53.042;6.406;2022-10-16T06:11:04;6.75;;;2.90;;
54263;SDS011;40178;53.042;6.406;2022-10-16T06:20:03;9.50;;;2.90;;
54263;SDS011;40178;53.042;6.406;2022-10-16T06:23:35;7.60;;;3.10;;
54263;SDS011;40178;53.042;6.406;2022-10-16T06:33:09;8.43;;;3.15;;
54263;SDS011;40178;53.042;6.406;2022-10-16T06:36:16;11.32;;;3.83;;
54263;SDS011;40178;53.042;6.406;2022-10-16T06:39:23;7.07;;;3.25;;
54263;SDS011;40178;53.042;6.406;2022-10-16T06:42:09;8.93;;;2.75;;
54263;SDS011;40178;53.042;6.406;2022-10-16T06:45:07;5.75;;;3.10;;
54263;SDS011;40178;53.042;6.406;2022-10-16T06:47:53;7.07;;;2.83;;
54263;SDS011;40178;53.042;6.406;2022-10-16T06:50:31;7.68;;;3.10;;
54263;SDS011;40178;53.042;6.406;2022-10-16T06:53:17;6.80;;;3.00;;
54263;SDS011;40178;53.042;6.406;2022-10-16T06:55:42;5.30;;;2.53;;
54263;SDS011;40178;53.042;6.406;2022-10-16T06:58:13;8.48;;;2.92;;
54263;SDS011;40178;53.042;6.406;2022-10-16T07:04:04;7.78;;;3.05;;
54263;SDS011;40178;53.042;6.406;2022-10-16T07:06:46;6.32;;;2.92;;
54263;SDS011;40178;53.042;6.406;2022-10-16T07:09:40;8.30;;;2.88;;
54263;SDS011;40178;53.042;6.406;2022-10-16T07:13:01;7.57;;;2.97;;
54263;SDS011;40178;53.042;6.406;2022-10-16T07:16:07;6.68;;;2.58;;
54263;SDS011;40178;53.042;6.406;2022-10-16T07:19:02;6.22;;;2.85;;
54263;SDS011;40178;53.042;6.406;2022-10-16T07:24:16;7.13;;;3.10;;
54263;SDS011;40178;53.042;6.406;2022-10-16T07:26:42;8.38;;;3.72;;
54263;SDS011;40178;53.042;6.406;2022-10-16T07:29:13;7.00;;;3.10;;
54263;SDS011;40178;53.042;6.406;2022-10-16T07:31:39;6.82;;;3.20;;
54263;SDS011;40178;53.042;6.406;2022-10-16T07:34:05;6.10;;;3.08;;
54263;SDS011;40178;53.042;6.406;2022-10-16T07:36:31;7.28;;;2.55;;
54263;SDS011;40178;53.042;6.406;2022-10-16T07:38:57;6.60;;;2.95;;
54263;SDS011;40178;53.042;6.406;2022-10-16T07:41:22;9.88;;;3.10;;
54263;SDS011;40178;53.042;6.406;2022-10-16T07:43:49;8.65;;;3.67;;
54263;SDS011;40178;53.042;6.406;2022-10-16T07:46:16;8.82;;;3.40;;
54263;SDS011;40178;53.042;6.406;2022-10-16T07:48:43;10.18;;;3.03;;
54263;SDS011;40178;53.042;6.406;2022-10-16T07:51:12;6.85;;;2.67;;
54263;SDS011;40178;53.042;6.406;2022-10-16T07:53:39;6.10;;;2.60;;
54263;SDS011;40178;53.042;6.406;2022-10-16T07:56:05;6.68;;;2.40;;
54263;SDS011;40178;53.042;6.406;2022-10-16T07:58:31;6.15;;;2.50;;
54263;SDS011;40178;53.042;6.406;2022-10-16T08:00:58;6.75;;;2.10;;
54263;SDS011;40178;53.042;6.406;2022-10-16T08:03:27;6.35;;;2.42;;
54263;SDS011;40178;53.042;6.406;2022-10-16T08:05:53;7.05;;;2.00;;
54263;SDS011;40178;53.042;6.406;2022-10-16T08:08:19;5.05;;;1.80;;
54263;SDS011;40178;53.042;6.406;2022-10-16T08:10:44;4.35;;;1.80;;
54263;SDS011;40178;53.042;6.406;2022-10-16T08:13:10;7.40;;;1.80;;
54263;SDS011;40178;53.042;6.406;2022-10-16T08:15:36;5.05;;;1.55;;
54263;SDS011;40178;53.042;6.406;2022-10-16T08:18:03;7.35;;;1.70;;
54263;SDS011;40178;53.042;6.406;2022-10-16T08:20:30;4.97;;;1.55;;
54263;SDS011;40178;53.042;6.406;2022-10-16T08:22:59;6.72;;;1.65;;
54263;SDS011;40178;53.042;6.406;2022-10-16T08:25:25;5.15;;;1.30;;
54263;SDS011;40178;53.042;6.406;2022-10-16T08:27:51;3.97;;;1.20;;
54263;SDS011;40178;53.042;6.406;2022-10-16T08:30:17;5.32;;;1.40;;
54263;SDS011;40178;53.042;6.406;2022-10-16T08:32:44;6.70;;;1.30;;
54263;SDS011;40178;53.042;6.406;2022-10-16T08:35:10;4.40;;;1.25;;
54263;SDS011;40178;53.042;6.406;2022-10-16T08:37:36;4.75;;;1.08;;
54263;SDS011;40178;53.042;6.406;2022-10-16T08:40:04;5.18;;;1.15;;
54263;SDS011;40178;53.042;6.406;2022-10-16T08:42:42;5.78;;;1.52;;
54263;SDS011;40178;53.042;6.406;2022-10-16T08:45:20;4.22;;;1.20;;
54263;SDS011;40178;53.042;6.406;2022-10-16T08:50:49;5.60;;;1.30;;
54263;SDS011;40178;53.042;6.406;2022-10-16T08:53:59;6.32;;;1.60;;
54263;SDS011;40178;53.042;6.406;2022-10-16T08:56:09;7.53;;;1.77;;
54263;SDS011;40178;53.042;6.406;2022-10-16T08:58:35;6.22;;;1.60;;
54263;SDS011;40178;53.042;6.406;2022-10-16T09:01:01;8.32;;;1.60;;
54263;SDS011;40178;53.042;6.406;2022-10-16T09:03:35;9.85;;;1.90;;
54263;SDS011;40178;53.042;6.406;2022-10-16T09:12:26;7.28;;;1.60;;
54263;SDS011;40178;53.042;6.406;2022-10-16T09:15:17;7.85;;;1.60;;
54263;SDS011;40178;53.042;6.406;2022-10-16T09:17:52;7.35;;;1.40;;
54263;SDS011;40178;53.042;6.406;2022-10-16T09:20:27;8.18;;;2.53;;
54263;SDS011;40178;53.042;6.406;2022-10-16T09:25:35;7.75;;;1.83;;
54263;SDS011;40178;53.042;6.406;2022-10-16T09:28:01;8.07;;;1.83;;
54263;SDS011;40178;53.042;6.406;2022-10-16T09:30:27;7.22;;;1.40;;
54263;SDS011;40178;53.042;6.406;2022-10-16T09:32:54;6.28;;;1.65;;
54263;SDS011;40178;53.042;6.406;2022-10-16T09:35:24;8.43;;;1.70;;
54263;SDS011;40178;53.042;6.406;2022-10-16T09:37:56;7.10;;;1.60;;
54263;SDS011;40178;53.042;6.406;2022-10-16T09:45:58;10.50;;;1.33;;
54263;SDS011;40178;53.042;6.406;2022-10-16T09:48:25;9.85;;;1.42;;
54263;SDS011;40178;53.042;6.406;2022-10-16T09:50:56;5.07;;;1.45;;
54263;SDS011;40178;53.042;6.406;2022-10-16T09:53:36;9.98;;;2.00;;
54263;SDS011;40178;53.042;6.406;2022-10-16T09:56:04;10.07;;;1.63;;
54263;SDS011;40178;53.042;6.406;2022-10-16T09:58:31;9.93;;;1.63;;
54263;SDS011;40178;53.042;6.406;2022-10-16T10:00:58;7.20;;;1.50;;
54263;SDS011;40178;53.042;6.406;2022-10-16T10:03:35;17.23;;;2.10;;
54263;SDS011;40178;53.042;6.406;2022-10-16T10:06:06;7.35;;;1.83;;
54263;SDS011;40178;53.042;6.406;2022-10-16T10:09:37;7.18;;;1.95;;
54263;SDS011;40178;53.042;6.406;2022-10-16T10:11:47;7.55;;;1.83;;
54263;SDS011;40178;53.042;6.406;2022-10-16T10:14:15;8.27;;;1.73;;
54263;SDS011;40178;53.042;6.406;2022-10-16T10:16:42;8.13;;;1.75;;
54263;SDS011;40178;53.042;6.406;2022-10-16T10:19:21;9.93;;;1.67;;
54263;SDS011;40178;53.042;6.406;2022-10-16T10:21:49;9.55;;;1.75;;
54263;SDS011;40178;53.042;6.406;2022-10-16T10:24:17;11.02;;;1.75;;
54263;SDS011;40178;53.042;6.406;2022-10-16T10:26:51;11.40;;;1.67;;
54263;SDS011;40178;53.042;6.406;2022-10-16T10:37:42;11.80;;;1.60;;
54263;SDS011;40178;53.042;6.406;2022-10-16T10:42:59;8.35;;;1.88;;
54263;SDS011;40178;53.042;6.406;2022-10-16T10:45:41;10.18;;;1.90;;
54263;SDS011;40178;53.042;6.406;2022-10-16T10:50:43;13.30;;;2.40;;
54263;SDS011;40178;53.042;6.406;2022-10-16T10:56:14;10.05;;;1.70;;
54263;SDS011;40178;53.042;6.406;2022-10-16T10:59:07;11.80;;;1.90;;
54263;SDS011;40178;53.042;6.406;2022-10-16T11:09:52;9.02;;;1.73;;
54263;SDS011;40178;53.042;6.406;2022-10-16T11:12:51;9.30;;;1.42;;
54263;SDS011;40178;53.042;6.406;2022-10-16T11:15:24;6.97;;;1.70;;
54263;SDS011;40178;53.042;6.406;2022-10-16T11:17:57;11.63;;;1.90;;
54263;SDS011;40178;53.042;6.406;2022-10-16T11:30:27;7.13;;;1.60;;
54263;SDS011;40178;53.042;6.406;2022-10-16T11:36:08;9.52;;;1.50;;
54263;SDS011;40178;53.042;6.406;2022-10-16T11:41:27;9.90;;;1.53;;
54263;SDS011;40178;53.042;6.406;2022-10-16T11:43:59;8.75;;;1.55;;
54263;SDS011;40178;53.042;6.406;2022-10-16T11:46:29;9.38;;;1.67;;
54263;SDS011;40178;53.042;6.406;2022-10-16T11:49:00;11.57;;;1.83;;
54263;SDS011;40178;53.042;6.406;2022-10-16T11:51:40;12.18;;;1.42;;
54263;SDS011;40178;53.042;6.406;2022-10-16T11:57:01;9.05;;;2.10;;
54263;SDS011;40178;53.042;6.406;2022-10-16T11:59:55;7.82;;;1.67;;
54263;SDS011;40178;53.042;6.406;2022-10-16T12:02:48;8.07;;;1.47;;
54263;SDS011;40178;53.042;6.406;2022-10-16T12:05:46;11.38;;;2.08;;
54263;SDS011;40178;53.042;6.406;2022-10-16T12:08:36;12.05;;;2.03;;
54263;SDS011;40178;53.042;6.406;2022-10-16T12:11:09;14.73;;;2.15;;
54263;SDS011;40178;53.042;6.406;2022-10-16T12:13:44;8.82;;;1.70;;
54263;SDS011;40178;53.042;6.406;2022-10-16T12:18:39;12.05;;;1.90;;
54263;SDS011;40178;53.042;6.406;2022-10-16T12:21:05;9.82;;;1.48;;
54263;SDS011;40178;53.042;6.406;2022-10-16T12:23:53;9.52;;;1.80;;
54263;SDS011;40178;53.042;6.406;2022-10-16T12:26:29;11.68;;;1.88;;
54263;SDS011;40178;53.042;6.406;2022-10-16T12:29:14;11.55;;;1.65;;
54263;SDS011;40178;53.042;6.406;2022-10-16T12:32:03;11.60;;;1.50;;
54263;SDS011;40178;53.042;6.406;2022-10-16T12:34:38;15.07;;;2.15;;
54263;SDS011;40178;53.042;6.406;2022-10-16T12:37:08;11.85;;;1.85;;
54263;SDS011;40178;53.042;6.406;2022-10-16T12:39:34;8.43;;;1.30;;
54263;SDS011;40178;53.042;6.406;2022-10-16T12:42:02;14.00;;;2.22;;
54263;SDS011;40178;53.042;6.406;2022-10-16T12:44:33;9.85;;;1.63;;
54263;SDS011;40178;53.042;6.406;2022-10-16T12:47:00;12.35;;;1.75;;
54263;SDS011;40178;53.042;6.406;2022-10-16T12:49:31;14.73;;;1.77;;
54263;SDS011;40178;53.042;6.406;2022-10-16T12:52:01;12.07;;;1.58;;
54263;SDS011;40178;53.042;6.406;2022-10-16T12:54:31;9.20;;;1.48;;
54263;SDS011;40178;53.042;6.406;2022-10-16T12:59:57;10.52;;;1.60;;
54263;SDS011;40178;53.042;6.406;2022-10-16T13:05:40;8.75;;;1.75;;
54263;SDS011;40178;53.042;6.406;2022-10-16T13:17:37;11.85;;;1.98;;
54263;SDS011;40178;53.042;6.406;2022-10-16T13:20:20;11.85;;;1.95;;
54263;SDS011;40178;53.042;6.406;2022-10-16T13:25:40;10.32;;;1.83;;
54263;SDS011;40178;53.042;6.406;2022-10-16T13:28:27;9.63;;;1.70;;
54263;SDS011;40178;53.042;6.406;2022-10-16T13:30:56;8.02;;;1.13;;
54263;SDS011;40178;53.042;6.406;2022-10-16T13:35:58;11.55;;;1.17;;
54263;SDS011;40178;53.042;6.406;2022-10-16T13:38:28;6.50;;;1.48;;
54263;SDS011;40178;53.042;6.406;2022-10-16T13:41:13;7.05;;;1.08;;
54263;SDS011;40178;53.042;6.406;2022-10-16T13:43:45;12.50;;;1.80;;
54263;SDS011;40178;53.042;6.406;2022-10-16T13:46:21;10.93;;;1.45;;
54263;SDS011;40178;53.042;6.406;2022-10-16T13:49:04;13.48;;;1.63;;
54263;SDS011;40178;53.042;6.406;2022-10-16T13:51:40;10.63;;;1.70;;
54263;SDS011;40178;53.042;6.406;2022-10-16T13:54:07;9.77;;;1.60;;
54263;SDS011;40178;53.042;6.406;2022-10-16T13:56:36;9.43;;;1.35;;
54263;SDS011;40178;53.042;6.406;2022-10-16T13:59:04;9.52;;;1.85;;
54263;SDS011;40178;53.042;6.406;2022-10-16T14:01:33;11.43;;;1.63;;
54263;SDS011;40178;53.042;6.406;2022-10-16T14:04:05;5.63;;;1.50;;
54263;SDS011;40178;53.042;6.406;2022-10-16T14:06:33;8.73;;;1.33;;
54263;SDS011;40178;53.042;6.406;2022-10-16T14:09:08;13.43;;;2.00;;
54263;SDS011;40178;53.042;6.406;2022-10-16T14:11:44;9.05;;;1.55;;
54263;SDS011;40178;53.042;6.406;2022-10-16T14:14:16;10.60;;;1.50;;
54263;SDS011;40178;53.042;6.406;2022-10-16T14:16:43;13.55;;;1.98;;
54263;SDS011;40178;53.042;6.406;2022-10-16T14:21:54;10.38;;;1.52;;
54263;SDS011;40178;53.042;6.406;2022-10-16T14:24:42;7.97;;;1.52;;
54263;SDS011;40178;53.042;6.406;2022-10-16T14:32:53;9.27;;;1.58;;
54263;SDS011;40178;53.042;6.406;2022-10-16T14:35:36;10.23;;;1.58;;
54263;SDS011;40178;53.042;6.406;2022-10-16T14:38:05;12.93;;;1.80;;
54263;SDS011;40178;53.042;6.406;2022-10-16T14:40:45;12.43;;;1.60;;
54263;SDS011;40178;53.042;6.406;2022-10-16T14:43:56;12.00;;;1.77;;
54263;SDS011;40178;53.042;6.406;2022-10-16T14:46:06;8.23;;;1.70;;
54263;SDS011;40178;53.042;6.406;2022-10-16T14:48:41;10.38;;;2.05;;
54263;SDS011;40178;53.042;6.406;2022-10-16T14:51:16;12.68;;;2.00;;
54263;SDS011;40178;53.042;6.406;2022-10-16T14:53:43;10.68;;;2.05;;
54263;SDS011;40178;53.042;6.406;2022-10-16T14:56:19;12.68;;;2.30;;
54263;SDS011;40178;53.042;6.406;2022-10-16T14:58:50;10.80;;;1.60;;
54263;SDS011;40178;53.042;6.406;2022-10-16T15:01:16;11.15;;;2.35;;
54263;SDS011;40178;53.042;6.406;2022-10-16T15:03:42;13.68;;;2.03;;
54263;SDS011;40178;53.042;6.406;2022-10-16T15:06:09;13.32;;;2.10;;
54263;SDS011;40178;53.042;6.406;2022-10-16T15:08:36;9.40;;;2.03;;
54263;SDS011;40178;53.042;6.406;2022-10-16T15:11:02;9.93;;;1.90;;
54263;SDS011;40178;53.042;6.406;2022-10-16T15:13:28;9.18;;;1.80;;
54263;SDS011;40178;53.042;6.406;2022-10-16T15:15:54;9.98;;;2.10;;
54263;SDS011;40178;53.042;6.406;2022-10-16T15:18:20;10.52;;;1.73;;
54263;SDS011;40178;53.042;6.406;2022-10-16T15:20:49;12.68;;;2.38;;
54263;SDS011;40178;53.042;6.406;2022-10-16T15:23:16;10.68;;;1.98;;
54263;SDS011;40178;53.042;6.406;2022-10-16T15:25:48;9.88;;;1.52;;
54263;SDS011;40178;53.042;6.406;2022-10-16T15:28:16;10.27;;;1.77;;
54263;SDS011;40178;53.042;6.406;2022-10-16T15:30:43;7.85;;;1.75;;
54263;SDS011;40178;53.042;6.406;2022-10-16T15:33:13;9.95;;;1.73;;
54263;SDS011;40178;53.042;6.406;2022-10-16T15:35:42;9.77;;;1.67;;
54263;SDS011;40178;53.042;6.406;2022-10-16T15:38:12;10.70;;;1.83;;
54263;SDS011;40178;53.042;6.406;2022-10-16T15:40:39;9.57;;;1.52;;
54263;SDS011;40178;53.042;6.406;2022-10-16T15:43:05;10.70;;;1.77;;
54263;SDS011;40178;53.042;6.406;2022-10-16T15:45:31;9.35;;;1.40;;
54263;SDS011;40178;53.042;6.406;2022-10-16T15:47:56;9.70;;;1.50;;
54263;SDS011;40178;53.042;6.406;2022-10-16T15:50:22;7.55;;;1.60;;
54263;SDS011;40178;53.042;6.406;2022-10-16T15:52:49;9.60;;;2.53;;
54263;SDS011;40178;53.042;6.406;2022-10-16T15:55:15;8.65;;;1.65;;
54263;SDS011;40178;53.042;6.406;2022-10-16T15:57:41;6.47;;;1.40;;
54263;SDS011;40178;53.042;6.406;2022-10-16T16:00:18;12.38;;;1.70;;
54263;SDS011;40178;53.042;6.406;2022-10-16T16:02:50;10.48;;;1.92;;
54263;SDS011;40178;53.042;6.406;2022-10-16T16:05:17;8.75;;;1.40;;
54263;SDS011;40178;53.042;6.406;2022-10-16T16:07:44;7.50;;;1.55;;
54263;SDS011;40178;53.042;6.406;2022-10-16T16:10:10;8.77;;;1.25;;
54263;SDS011;40178;53.042;6.406;2022-10-16T16:12:36;12.38;;;3.03;;
54263;SDS011;40178;53.042;6.406;2022-10-16T16:15:06;9.07;;;1.58;;
54263;SDS011;40178;53.042;6.406;2022-10-16T16:17:33;7.78;;;1.45;;
54263;SDS011;40178;53.042;6.406;2022-10-16T16:19:59;10.93;;;1.58;;
54263;SDS011;40178;53.042;6.406;2022-10-16T16:22:25;6.80;;;1.42;;
54263;SDS011;40178;53.042;6.406;2022-10-16T16:24:51;9.55;;;1.58;;
54263;SDS011;40178;53.042;6.406;2022-10-16T16:27:16;11.30;;;1.83;;
54263;SDS011;40178;53.042;6.406;2022-10-16T16:29:42;11.25;;;1.70;;
54263;SDS011;40178;53.042;6.406;2022-10-16T16:32:07;11.13;;;2.05;;
54263;SDS011;40178;53.042;6.406;2022-10-16T16:34:33;9.68;;;1.65;;
54263;SDS011;40178;53.042;6.406;2022-10-16T16:36:59;11.43;;;1.75;;
54263;SDS011;40178;53.042;6.406;2022-10-16T16:39:24;9.20;;;2.17;;
54263;SDS011;40178;53.042;6.406;2022-10-16T16:41:50;8.43;;;1.55;;
54263;SDS011;40178;53.042;6.406;2022-10-16T16:44:16;10.10;;;2.08;;
54263;SDS011;40178;53.042;6.406;2022-10-16T16:46:43;10.23;;;1.48;;
54263;SDS011;40178;53.042;6.406;2022-10-16T16:49:09;7.60;;;1.77;;
54263;SDS011;40178;53.042;6.406;2022-10-16T16:51:36;12.45;;;2.28;;
54263;SDS011;40178;53.042;6.406;2022-10-16T16:54:03;10.80;;;1.42;;
54263;SDS011;40178;53.042;6.406;2022-10-16T16:56:28;10.05;;;1.45;;
54263;SDS011;40178;53.042;6.406;2022-10-16T16:58:55;9.60;;;1.70;;
54263;SDS011;40178;53.042;6.406;2022-10-16T17:01:21;7.63;;;1.60;;
54263;SDS011;40178;53.042;6.406;2022-10-16T17:03:51;12.75;;;1.88;;
54263;SDS011;40178;53.042;6.406;2022-10-16T17:06:18;10.25;;;1.60;;
54263;SDS011;40178;53.042;6.406;2022-10-16T17:08:45;11.07;;;2.17;;
54263;SDS011;40178;53.042;6.406;2022-10-16T17:11:12;10.13;;;1.60;;
54263;SDS011;40178;53.042;6.406;2022-10-16T17:13:39;14.27;;;2.10;;
54263;SDS011;40178;53.042;6.406;2022-10-16T17:16:05;12.15;;;2.08;;
54263;SDS011;40178;53.042;6.406;2022-10-16T17:18:31;11.70;;;2.00;;
54263;SDS011;40178;53.042;6.406;2022-10-16T17:21:00;13.45;;;1.70;;
54263;SDS011;40178;53.042;6.406;2022-10-16T17:23:28;8.30;;;1.83;;
54263;SDS011;40178;53.042;6.406;2022-10-16T17:25:54;9.48;;;1.52;;
54263;SDS011;40178;53.042;6.406;2022-10-16T17:28:20;7.47;;;1.70;;
54263;SDS011;40178;53.042;6.406;2022-10-16T17:30:45;8.13;;;1.50;;
54263;SDS011;40178;53.042;6.406;2022-10-16T17:33:11;10.95;;;2.17;;
54263;SDS011;40178;53.042;6.406;2022-10-16T17:35:43;9.52;;;1.88;;
54263;SDS011;40178;53.042;6.406;2022-10-16T17:38:11;10.20;;;1.70;;
54263;SDS011;40178;53.042;6.406;2022-10-16T17:40:38;11.10;;;1.50;;
54263;SDS011;40178;53.042;6.406;2022-10-16T17:43:04;13.15;;;1.95;;
54263;SDS011;40178;53.042;6.406;2022-10-16T17:45:30;9.20;;;1.42;;
54263;SDS011;40178;53.042;6.406;2022-10-16T17:47:59;15.20;;;2.17;;
54263;SDS011;40178;53.042;6.406;2022-10-16T17:50:25;7.50;;;1.60;;
54263;SDS011;40178;53.042;6.406;2022-10-16T17:52:50;12.60;;;2.22;;
54263;SDS011;40178;53.042;6.406;2022-10-16T17:55:16;7.65;;;2.05;;
54263;SDS011;40178;53.042;6.406;2022-10-16T17:57:41;10.65;;;1.20;;
54263;SDS011;40178;53.042;6.406;2022-10-16T18:00:07;10.35;;;1.60;;
54263;SDS011;40178;53.042;6.406;2022-10-16T18:02:34;8.45;;;1.40;;
54263;SDS011;40178;53.042;6.406;2022-10-16T18:04:59;7.97;;;1.50;;
54263;SDS011;40178;53.042;6.406;2022-10-16T18:07:25;12.10;;;2.03;;
54263;SDS011;40178;53.042;6.406;2022-10-16T18:10:00;8.25;;;1.88;;
54263;SDS011;40178;53.042;6.406;2022-10-16T18:24:35;11.60;;;1.80;;
54263;SDS011;40178;53.042;6.406;2022-10-16T18:27:11;6.15;;;1.73;;
54263;SDS011;40178;53.042;6.406;2022-10-16T18:29:46;9.93;;;1.85;;
54263;SDS011;40178;53.042;6.406;2022-10-16T18:32:22;8.77;;;1.80;;
54263;SDS011;40178;53.042;6.406;2022-10-16T18:34:58;9.85;;;1.50;;
54263;SDS011;40178;53.042;6.406;2022-10-16T18:37:34;6.95;;;1.48;;
54263;SDS011;40178;53.042;6.406;2022-10-16T18:40:10;7.13;;;1.33;;
54263;SDS011;40178;53.042;6.406;2022-10-16T18:42:46;12.57;;;1.55;;
54263;SDS011;40178;53.042;6.406;2022-10-16T18:45:21;11.95;;;1.73;;
54263;SDS011;40178;53.042;6.406;2022-10-16T18:47:57;8.18;;;1.27;;
54263;SDS011;40178;53.042;6.406;2022-10-16T18:50:22;9.77;;;1.70;;
54263;SDS011;40178;53.042;6.406;2022-10-16T18:52:48;9.23;;;1.85;;
54263;SDS011;40178;53.042;6.406;2022-10-16T18:55:14;10.82;;;1.88;;
54263;SDS011;40178;53.042;6.406;2022-10-16T18:57:40;14.40;;;2.17;;
54263;SDS011;40178;53.042;6.406;2022-10-16T19:00:05;9.48;;;1.48;;
54263;SDS011;40178;53.042;6.406;2022-10-16T19:02:32;12.50;;;1.92;;
54263;SDS011;40178;53.042;6.406;2022-10-16T19:04:57;13.07;;;2.20;;
54263;SDS011;40178;53.042;6.406;2022-10-16T19:07:23;8.77;;;1.88;;
54263;SDS011;40178;53.042;6.406;2022-10-16T19:09:49;8.38;;;1.30;;
54263;SDS011;40178;53.042;6.406;2022-10-16T19:12:15;10.77;;;1.75;;
54263;SDS011;40178;53.042;6.406;2022-10-16T19:14:40;8.80;;;1.67;;
54263;SDS011;40178;53.042;6.406;2022-10-16T19:17:06;4.07;;;1.35;;
54263;SDS011;40178;53.042;6.406;2022-10-16T19:19:32;5.90;;;1.25;;